sensor_id;sensor_type;location;lat;lon;timestamp;pressure;altitude;pressure_sealevel;temperature;humidity
50384;BME280;36301;48.310;12.786;2022-09-09T00:00:43;96107.50;;;11.40;100.00
50384;BME280;36301;48.310;12.786;2022-09-09T00:03:17;96105.97;;;11.35;100.00
50384;BME280;36301;48.310;12.786;2022-09-09T00:05:59;96097.94;;;11.28;100.00
50384;BME280;36301;48.310;12.786;2022-09-09T00:08:35;96094.56;;;11.31;100.00
50384;BME280;36301;48.310;12.786;2022-09-09T00:11:08;96095.69;;;11.30;100.00
50384;BME280;36301;48.310;12.786;2022-09-09T00:13:41;96096.47;;;11.31;100.00
50384;BME280;36301;48.310;12.786;2022-09-09T00:21:14;96080.91;;;11.26;100.00
50384;BME280;36301;48.310;12.786;2022-09-09T00:23:45;96077.81;;;11.20;100.00
50384;BME280;36301;48.310;12.786;2022-09-09T00:31:34;96074.44;;;11.23;100.00
50384;BME280;36301;48.310;12.786;2022-09-09T00:34:11;96081.25;;;11.21;100.00
50384;BME280;36301;48.310;12.786;2022-09-09T00:36:39;96080.88;;;11.22;100.00
50384;BME280;36301;48.310;12.786;2022-09-09T00:39:08;96074.00;;;11.17;100.00
50384;BME280;36301;48.310;12.786;2022-09-09T00:44:38;96083.78;;;11.10;100.00
50384;BME280;36301;48.310;12.786;2022-09-09T00:57:52;96072.38;;;11.02;100.00
50384;BME280;36301;48.310;12.786;2022-09-09T01:08:28;96081.44;;;11.01;100.00
50384;BME280;36301;48.310;12.786;2022-09-09T01:11:00;96088.66;;;11.04;100.00
50384;BME280;36301;48.310;12.786;2022-09-09T01:13:29;96087.84;;;10.97;100.00
50384;BME280;36301;48.310;12.786;2022-09-09T01:16:00;96095.69;;;10.89;100.00
50384;BME280;36301;48.310;12.786;2022-09-09T01:18:28;96100.94;;;10.82;100.00
50384;BME280;36301;48.310;12.786;2022-09-09T01:23:36;96089.94;;;10.80;100.00
50384;BME280;36301;48.310;12.786;2022-09-09T01:26:08;96094.56;;;10.87;100.00
50384;BME280;36301;48.310;12.786;2022-09-09T01:28:36;96094.59;;;10.94;100.00
50384;BME280;36301;48.310;12.786;2022-09-09T01:31:04;96085.16;;;10.93;100.00
50384;BME280;36301;48.310;12.786;2022-09-09T01:33:32;96077.56;;;10.91;100.00
50384;BME280;36301;48.310;12.786;2022-09-09T01:36:10;96087.41;;;10.95;100.00
50384;BME280;36301;48.310;12.786;2022-09-09T01:38:38;96086.31;;;10.96;100.00
50384;BME280;36301;48.310;12.786;2022-09-09T01:41:04;96085.19;;;10.97;100.00
50384;BME280;36301;48.310;12.786;2022-09-09T01:43:31;96089.63;;;10.89;100.00
50384;BME280;36301;48.310;12.786;2022-09-09T01:45:58;96085.47;;;10.88;100.00
50384;BME280;36301;48.310;12.786;2022-09-09T01:48:25;96086.22;;;10.88;100.00
50384;BME280;36301;48.310;12.786;2022-09-09T01:50:52;96086.66;;;10.90;100.00
50384;BME280;36301;48.310;12.786;2022-09-09T01:53:19;96088.16;;;10.91;100.00
50384;BME280;36301;48.310;12.786;2022-09-09T01:55:54;96081.34;;;10.90;100.00
50384;BME280;36301;48.310;12.786;2022-09-09T02:03:52;96074.03;;;10.77;100.00
50384;BME280;36301;48.310;12.786;2022-09-09T02:06:27;96083.53;;;10.81;100.00
50384;BME280;36301;48.310;12.786;2022-09-09T02:08:55;96088.06;;;10.81;100.00
50384;BME280;36301;48.310;12.786;2022-09-09T02:11:23;96086.88;;;10.78;100.00
50384;BME280;36301;48.310;12.786;2022-09-09T02:14:00;96087.22;;;10.73;100.00
50384;BME280;36301;48.310;12.786;2022-09-09T02:21:27;96098.63;;;10.77;100.00
50384;BME280;36301;48.310;12.786;2022-09-09T02:23:55;96101.63;;;10.76;100.00
50384;BME280;36301;48.310;12.786;2022-09-09T02:26:24;96103.91;;;10.77;100.00
50384;BME280;36301;48.310;12.786;2022-09-09T02:28:52;96098.22;;;10.75;100.00
50384;BME280;36301;48.310;12.786;2022-09-09T02:31:21;96096.28;;;10.72;100.00
50384;BME280;36301;48.310;12.786;2022-09-09T02:33:51;96097.09;;;10.76;100.00
50384;BME280;36301;48.310;12.786;2022-09-09T02:36:18;96088.41;;;10.79;100.00
50384;BME280;36301;48.310;12.786;2022-09-09T02:38:47;96084.28;;;10.82;100.00
50384;BME280;36301;48.310;12.786;2022-09-09T02:41:20;96089.22;;;10.83;100.00
50384;BME280;36301;48.310;12.786;2022-09-09T02:43:49;96092.50;;;10.73;100.00
50384;BME280;36301;48.310;12.786;2022-09-09T02:48:48;96101.66;;;10.79;100.00
50384;BME280;36301;48.310;12.786;2022-09-09T02:53:48;96099.47;;;10.85;100.00
50384;BME280;36301;48.310;12.786;2022-09-09T02:56:19;96099.53;;;10.92;100.00
50384;BME280;36301;48.310;12.786;2022-09-09T02:58:47;96089.75;;;11.00;100.00
50384;BME280;36301;48.310;12.786;2022-09-09T03:01:14;96092.81;;;11.02;100.00
50384;BME280;36301;48.310;12.786;2022-09-09T03:03:40;96095.13;;;11.07;100.00
50384;BME280;36301;48.310;12.786;2022-09-09T03:06:08;96090.63;;;11.11;100.00
50384;BME280;36301;48.310;12.786;2022-09-09T03:08:36;96096.34;;;11.16;100.00
50384;BME280;36301;48.310;12.786;2022-09-09T03:11:02;96086.88;;;11.19;100.00
50384;BME280;36301;48.310;12.786;2022-09-09T03:13:29;96082.72;;;11.18;100.00
50384;BME280;36301;48.310;12.786;2022-09-09T03:15:55;96082.00;;;11.21;100.00
50384;BME280;36301;48.310;12.786;2022-09-09T03:18:21;96093.41;;;11.29;100.00
50384;BME280;36301;48.310;12.786;2022-09-09T03:20:48;96095.31;;;11.28;100.00
50384;BME280;36301;48.310;12.786;2022-09-09T03:23:14;96091.88;;;11.28;100.00
50384;BME280;36301;48.310;12.786;2022-09-09T03:25:47;96083.91;;;11.24;100.00
50384;BME280;36301;48.310;12.786;2022-09-09T03:28:14;96084.31;;;11.26;100.00
50384;BME280;36301;48.310;12.786;2022-09-09T03:30:41;96080.56;;;11.31;100.00
50384;BME280;36301;48.310;12.786;2022-09-09T03:33:07;96071.91;;;11.37;100.00
50384;BME280;36301;48.310;12.786;2022-09-09T03:35:34;96075.38;;;11.49;100.00
50384;BME280;36301;48.310;12.786;2022-09-09T03:38:00;96072.81;;;11.56;100.00
50384;BME280;36301;48.310;12.786;2022-09-09T03:40:26;96073.97;;;11.62;100.00
50384;BME280;36301;48.310;12.786;2022-09-09T03:42:53;96072.84;;;11.63;100.00
50384;BME280;36301;48.310;12.786;2022-09-09T03:45:19;96071.31;;;11.65;100.00
50384;BME280;36301;48.310;12.786;2022-09-09T03:47:46;96070.56;;;11.65;100.00
50384;BME280;36301;48.310;12.786;2022-09-09T03:50:12;96062.25;;;11.70;100.00
50384;BME280;36301;48.310;12.786;2022-09-09T03:52:39;96064.56;;;11.75;100.00
50384;BME280;36301;48.310;12.786;2022-09-09T03:55:06;96058.16;;;11.80;100.00
50384;BME280;36301;48.310;12.786;2022-09-09T03:57:33;96060.81;;;11.80;100.00
50384;BME280;36301;48.310;12.786;2022-09-09T04:00:04;96054.38;;;11.81;100.00
50384;BME280;36301;48.310;12.786;2022-09-09T04:02:31;96054.81;;;11.86;100.00
50384;BME280;36301;48.310;12.786;2022-09-09T04:04:58;96050.94;;;11.80;100.00
50384;BME280;36301;48.310;12.786;2022-09-09T04:07:25;96054.03;;;11.82;100.00
50384;BME280;36301;48.310;12.786;2022-09-09T04:09:53;96052.91;;;11.83;100.00
50384;BME280;36301;48.310;12.786;2022-09-09T04:12:20;96051.41;;;11.82;100.00
50384;BME280;36301;48.310;12.786;2022-09-09T04:14:47;96035.81;;;11.81;100.00
50384;BME280;36301;48.310;12.786;2022-09-09T04:17:13;96038.03;;;11.75;100.00
50384;BME280;36301;48.310;12.786;2022-09-09T04:19:40;96039.56;;;11.73;100.00
50384;BME280;36301;48.310;12.786;2022-09-09T04:22:06;96037.28;;;11.75;100.00
50384;BME280;36301;48.310;12.786;2022-09-09T04:24:33;96028.94;;;11.69;100.00
50384;BME280;36301;48.310;12.786;2022-09-09T04:26:59;96029.66;;;11.62;100.00
50384;BME280;36301;48.310;12.786;2022-09-09T04:29:26;96038.72;;;11.58;100.00
50384;BME280;36301;48.310;12.786;2022-09-09T04:31:52;96035.72;;;11.63;100.00
50384;BME280;36301;48.310;12.786;2022-09-09T04:34:19;96022.84;;;11.65;100.00
50384;BME280;36301;48.310;12.786;2022-09-09T04:36:45;96016.81;;;11.68;100.00
50384;BME280;36301;48.310;12.786;2022-09-09T04:39:12;96027.78;;;11.70;100.00
50384;BME280;36301;48.310;12.786;2022-09-09T04:41:38;96019.81;;;11.63;100.00
50384;BME280;36301;48.310;12.786;2022-09-09T04:44:04;96026.63;;;11.64;100.00
50384;BME280;36301;48.310;12.786;2022-09-09T04:46:31;96037.63;;;11.66;100.00
50384;BME280;36301;48.310;12.786;2022-09-09T04:48:57;96037.25;;;11.67;100.00
50384;BME280;36301;48.310;12.786;2022-09-09T04:51:24;96041.06;;;11.74;100.00
50384;BME280;36301;48.310;12.786;2022-09-09T04:53:51;96045.66;;;11.77;100.00
50384;BME280;36301;48.310;12.786;2022-09-09T04:56:17;96047.19;;;11.81;100.00
50384;BME280;36301;48.310;12.786;2022-09-09T04:58:44;96054.03;;;11.82;100.00
50384;BME280;36301;48.310;12.786;2022-09-09T05:03:38;96059.66;;;11.81;100.00
50384;BME280;36301;48.310;12.786;2022-09-09T05:06:05;96054.03;;;11.82;100.00
50384;BME280;36301;48.310;12.786;2022-09-09T05:08:32;96066.88;;;11.80;100.00
50384;BME280;36301;48.310;12.786;2022-09-09T05:10:58;96067.31;;;11.82;100.00
50384;BME280;36301;48.310;12.786;2022-09-09T05:13:28;96079.88;;;11.92;100.00
50384;BME280;36301;48.310;12.786;2022-09-09T05:15:55;96085.97;;;11.97;100.00
50384;BME280;36301;48.310;12.786;2022-09-09T05:18:21;96081.06;;;12.02;100.00
50384;BME280;36301;48.310;12.786;2022-09-09T05:20:49;96081.06;;;12.06;100.00
50384;BME280;36301;48.310;12.786;2022-09-09T05:23:15;96074.66;;;12.07;100.00
50384;BME280;36301;48.310;12.786;2022-09-09T05:25:42;96076.16;;;12.11;100.00
50384;BME280;36301;48.310;12.786;2022-09-09T05:28:09;96066.38;;;12.26;100.00
50384;BME280;36301;48.310;12.786;2022-09-09T05:30:37;96064.16;;;12.42;100.00
50384;BME280;36301;48.310;12.786;2022-09-09T05:33:03;96068.00;;;12.52;100.00
50384;BME280;36301;48.310;12.786;2022-09-09T05:35:30;96068.00;;;12.59;100.00
50384;BME280;36301;48.310;12.786;2022-09-09T05:37:59;96066.06;;;12.45;100.00
50384;BME280;36301;48.310;12.786;2022-09-09T05:40:25;96062.66;;;12.45;100.00
50384;BME280;36301;48.310;12.786;2022-09-09T05:42:52;96053.56;;;12.42;100.00
50384;BME280;36301;48.310;12.786;2022-09-09T05:45:19;96059.59;;;12.46;100.00
50384;BME280;36301;48.310;12.786;2022-09-09T05:47:50;96059.63;;;12.50;100.00
50384;BME280;36301;48.310;12.786;2022-09-09T05:50:18;96052.81;;;12.49;100.00
50384;BME280;36301;48.310;12.786;2022-09-09T05:52:44;96047.50;;;12.49;100.00
50384;BME280;36301;48.310;12.786;2022-09-09T05:55:11;96043.31;;;12.44;100.00
50384;BME280;36301;48.310;12.786;2022-09-09T05:57:37;96055.06;;;12.43;100.00
50384;BME280;36301;48.310;12.786;2022-09-09T06:00:05;96058.88;;;12.50;100.00
50384;BME280;36301;48.310;12.786;2022-09-09T06:02:32;96064.56;;;12.52;100.00
50384;BME280;36301;48.310;12.786;2022-09-09T06:04:59;96066.13;;;12.63;100.00
50384;BME280;36301;48.310;12.786;2022-09-09T06:07:26;96066.16;;;12.81;100.00
50384;BME280;36301;48.310;12.786;2022-09-09T06:09:52;96068.84;;;12.99;100.00
50384;BME280;36301;48.310;12.786;2022-09-09T06:12:19;96058.59;;;13.15;100.00
50384;BME280;36301;48.310;12.786;2022-09-09T06:14:46;96064.31;;;13.21;100.00
50384;BME280;36301;48.310;12.786;2022-09-09T06:17:13;96071.53;;;13.42;100.00
50384;BME280;36301;48.310;12.786;2022-09-09T06:19:39;96071.16;;;13.58;100.00
50384;BME280;36301;48.310;12.786;2022-09-09T06:22:05;96072.28;;;13.67;100.00
50384;BME280;36301;48.310;12.786;2022-09-09T06:24:32;96064.28;;;13.67;100.00
50384;BME280;36301;48.310;12.786;2022-09-09T06:26:59;96061.66;;;13.57;100.00
50384;BME280;36301;48.310;12.786;2022-09-09T06:29:25;96072.66;;;13.62;100.00
50384;BME280;36301;48.310;12.786;2022-09-09T06:31:52;96067.75;;;13.64;100.00
50384;BME280;36301;48.310;12.786;2022-09-09T06:34:19;96080.25;;;13.71;100.00
50384;BME280;36301;48.310;12.786;2022-09-09T06:36:45;96093.19;;;13.69;100.00
50384;BME280;36301;48.310;12.786;2022-09-09T06:39:12;96089.38;;;13.66;100.00
50384;BME280;36301;48.310;12.786;2022-09-09T06:41:40;96099.25;;;13.73;100.00
50384;BME280;36301;48.310;12.786;2022-09-09T06:44:07;96091.28;;;13.76;100.00
50384;BME280;36301;48.310;12.786;2022-09-09T06:46:33;96090.50;;;13.72;100.00
50384;BME280;36301;48.310;12.786;2022-09-09T06:49:01;96082.53;;;13.76;100.00
50384;BME280;36301;48.310;12.786;2022-09-09T06:51:33;96092.06;;;13.70;100.00
50384;BME280;36301;48.310;12.786;2022-09-09T06:54:00;96097.75;;;13.72;100.00
50384;BME280;36301;48.310;12.786;2022-09-09T06:56:32;96098.88;;;13.74;100.00
50384;BME280;36301;48.310;12.786;2022-09-09T06:59:00;96087.84;;;13.83;100.00
50384;BME280;36301;48.310;12.786;2022-09-09T07:01:33;96067.69;;;13.82;100.00
50384;BME280;36301;48.310;12.786;2022-09-09T07:04:01;96077.16;;;13.97;100.00
50384;BME280;36301;48.310;12.786;2022-09-09T07:06:30;96088.19;;;14.03;100.00
50384;BME280;36301;48.310;12.786;2022-09-09T07:08:58;96089.69;;;14.08;100.00
50384;BME280;36301;48.310;12.786;2022-09-09T07:11:26;96095.78;;;14.05;100.00
50384;BME280;36301;48.310;12.786;2022-09-09T07:13:56;96096.91;;;14.07;100.00
50384;BME280;36301;48.310;12.786;2022-09-09T07:16:23;96094.63;;;14.13;100.00
50384;BME280;36301;48.310;12.786;2022-09-09T07:18:51;96102.25;;;14.14;100.00
50384;BME280;36301;48.310;12.786;2022-09-09T07:21:18;96101.47;;;14.07;100.00
50384;BME280;36301;48.310;12.786;2022-09-09T07:23:45;96088.97;;;13.96;100.00
50384;BME280;36301;48.310;12.786;2022-09-09T07:26:21;96081.72;;;13.93;100.00
50384;BME280;36301;48.310;12.786;2022-09-09T07:28:48;96079.84;;;13.94;100.00
50384;BME280;36301;48.310;12.786;2022-09-09T07:31:16;96078.69;;;13.95;100.00
50384;BME280;36301;48.310;12.786;2022-09-09T07:33:44;96083.63;;;13.93;100.00
50384;BME280;36301;48.310;12.786;2022-09-09T07:36:17;96089.72;;;13.93;100.00
50384;BME280;36301;48.310;12.786;2022-09-09T07:38:45;96100.34;;;14.08;100.00
50384;BME280;36301;48.310;12.786;2022-09-09T07:41:16;96098.41;;;14.19;100.00
50384;BME280;36301;48.310;12.786;2022-09-09T07:43:43;96091.56;;;14.21;100.00
50384;BME280;36301;48.310;12.786;2022-09-09T07:46:11;96100.66;;;14.27;100.00
50384;BME280;36301;48.310;12.786;2022-09-09T07:48:38;96096.88;;;14.25;100.00
50384;BME280;36301;48.310;12.786;2022-09-09T07:53:32;96099.91;;;14.27;100.00
50384;BME280;36301;48.310;12.786;2022-09-09T07:56:08;96104.06;;;14.35;100.00
50384;BME280;36301;48.310;12.786;2022-09-09T07:58:36;96104.03;;;14.42;100.00
50384;BME280;36301;48.310;12.786;2022-09-09T08:01:10;96096.03;;;14.57;100.00
50384;BME280;36301;48.310;12.786;2022-09-09T08:03:37;96111.16;;;14.77;99.33
50384;BME280;36301;48.310;12.786;2022-09-09T08:06:04;96111.13;;;14.81;99.30
50384;BME280;36301;48.310;12.786;2022-09-09T08:08:32;96109.84;;;15.07;99.15
50384;BME280;36301;48.310;12.786;2022-09-09T08:11:06;96120.03;;;15.19;98.29
50384;BME280;36301;48.310;12.786;2022-09-09T08:13:34;96127.88;;;15.41;97.61
50384;BME280;36301;48.310;12.786;2022-09-09T08:16:35;96120.69;;;15.34;96.46
50384;BME280;36301;48.310;12.786;2022-09-09T08:18:53;96128.72;;;15.30;95.73
50384;BME280;36301;48.310;12.786;2022-09-09T08:21:22;96137.50;;;15.31;96.18
50384;BME280;36301;48.310;12.786;2022-09-09T08:23:50;96129.53;;;15.20;94.28
50384;BME280;36301;48.310;12.786;2022-09-09T08:26:24;96133.75;;;15.18;94.75
50384;BME280;36301;48.310;12.786;2022-09-09T08:28:52;96134.09;;;15.27;95.73
50384;BME280;36301;48.310;12.786;2022-09-09T08:31:20;96138.25;;;15.31;95.11
50384;BME280;36301;48.310;12.786;2022-09-09T08:33:47;96137.78;;;15.40;95.12
50384;BME280;36301;48.310;12.786;2022-09-09T08:36:22;96138.53;;;15.44;95.86
50384;BME280;36301;48.310;12.786;2022-09-09T08:38:49;96148.47;;;15.40;96.48
50384;BME280;36301;48.310;12.786;2022-09-09T08:46:46;96150.44;;;15.36;96.12
50384;BME280;36301;48.310;12.786;2022-09-09T08:52:01;96161.81;;;15.40;95.51
50384;BME280;36301;48.310;12.786;2022-09-09T08:54:30;96161.88;;;15.33;94.19
50384;BME280;36301;48.310;12.786;2022-09-09T08:57:21;96157.59;;;15.46;94.53
50384;BME280;36301;48.310;12.786;2022-09-09T08:59:53;96168.63;;;15.45;96.19
50384;BME280;36301;48.310;12.786;2022-09-09T09:02:23;96176.22;;;15.53;95.74
50384;BME280;36301;48.310;12.786;2022-09-09T09:07:35;96178.91;;;15.50;97.44
50384;BME280;36301;48.310;12.786;2022-09-09T09:10:12;96185.75;;;15.51;98.83
50384;BME280;36301;48.310;12.786;2022-09-09T09:13:02;96189.22;;;15.48;99.08
50384;BME280;36301;48.310;12.786;2022-09-09T09:15:38;96195.78;;;15.32;100.00
50384;BME280;36301;48.310;12.786;2022-09-09T09:18:05;96208.78;;;15.23;100.00
50384;BME280;36301;48.310;12.786;2022-09-09T09:20:43;96207.63;;;15.24;100.00
50384;BME280;36301;48.310;12.786;2022-09-09T09:23:56;96215.63;;;15.24;100.00
50384;BME280;36301;48.310;12.786;2022-09-09T09:26:05;96212.53;;;15.33;100.00
50384;BME280;36301;48.310;12.786;2022-09-09T09:28:33;96215.63;;;15.24;100.00
50384;BME280;36301;48.310;12.786;2022-09-09T09:31:04;96210.34;;;15.21;100.00
50384;BME280;36301;48.310;12.786;2022-09-09T09:33:38;96203.47;;;15.20;100.00
50384;BME280;36301;48.310;12.786;2022-09-09T09:36:10;96206.19;;;15.13;100.00
50384;BME280;36301;48.310;12.786;2022-09-09T09:38:39;96206.53;;;15.18;100.00
50384;BME280;36301;48.310;12.786;2022-09-09T09:41:30;96211.84;;;15.22;100.00
50384;BME280;36301;48.310;12.786;2022-09-09T09:43:56;96213.78;;;15.18;100.00
50384;BME280;36301;48.310;12.786;2022-09-09T09:46:23;96224.09;;;15.16;100.00
50384;BME280;36301;48.310;12.786;2022-09-09T09:49:01;96223.28;;;15.26;100.00
50384;BME280;36301;48.310;12.786;2022-09-09T09:51:29;96231.28;;;15.26;100.00
50384;BME280;36301;48.310;12.786;2022-09-09T09:54:14;96228.91;;;15.39;100.00
50384;BME280;36301;48.310;12.786;2022-09-09T09:56:43;96217.41;;;15.49;100.00
50384;BME280;36301;48.310;12.786;2022-09-09T09:59:23;96223.50;;;15.49;100.00
50384;BME280;36301;48.310;12.786;2022-09-09T10:02:15;96221.66;;;15.39;100.00
50384;BME280;36301;48.310;12.786;2022-09-09T10:04:42;96224.38;;;15.32;100.00
50384;BME280;36301;48.310;12.786;2022-09-09T10:07:13;96219.38;;;15.38;100.00
50384;BME280;36301;48.310;12.786;2022-09-09T10:09:42;96218.28;;;15.28;100.00
50384;BME280;36301;48.310;12.786;2022-09-09T10:17:20;96214.53;;;15.15;100.00
50384;BME280;36301;48.310;12.786;2022-09-09T10:19:57;96213.44;;;15.09;100.00
50384;BME280;36301;48.310;12.786;2022-09-09T10:22:28;96211.56;;;15.05;100.00
50384;BME280;36301;48.310;12.786;2022-09-09T10:27:42;96220.00;;;14.86;100.00
50384;BME280;36301;48.310;12.786;2022-09-09T10:35:53;96220.06;;;14.72;100.00
50384;BME280;36301;48.310;12.786;2022-09-09T10:38:45;96223.03;;;14.85;100.00
50384;BME280;36301;48.310;12.786;2022-09-09T10:51:23;96222.47;;;15.25;100.00
50384;BME280;36301;48.310;12.786;2022-09-09T10:54:40;96217.56;;;15.20;100.00
50384;BME280;36301;48.310;12.786;2022-09-09T10:56:39;96225.13;;;15.29;100.00
50384;BME280;36301;48.310;12.786;2022-09-09T10:59:13;96211.41;;;15.30;100.00
50384;BME280;36301;48.310;12.786;2022-09-09T11:01:47;96206.88;;;15.24;100.00
50384;BME280;36301;48.310;12.786;2022-09-09T11:06:58;96218.63;;;15.34;100.00
50384;BME280;36301;48.310;12.786;2022-09-09T11:09:41;96219.66;;;15.54;100.00
50384;BME280;36301;48.310;12.786;2022-09-09T11:12:11;96224.56;;;15.63;100.00
50384;BME280;36301;48.310;12.786;2022-09-09T11:14:41;96220.28;;;15.76;100.00
50384;BME280;36301;48.310;12.786;2022-09-09T11:17:22;96218.66;;;15.93;100.00
50384;BME280;36301;48.310;12.786;2022-09-09T11:19:50;96218.88;;;16.13;100.00
50384;BME280;36301;48.310;12.786;2022-09-09T11:27:33;96226.28;;;16.35;100.00
50384;BME280;36301;48.310;12.786;2022-09-09T11:30:04;96230.47;;;16.37;100.00
50384;BME280;36301;48.310;12.786;2022-09-09T11:35:07;96219.13;;;16.29;100.00
50384;BME280;36301;48.310;12.786;2022-09-09T11:37:51;96216.56;;;16.15;100.00
50384;BME280;36301;48.310;12.786;2022-09-09T11:40:24;96215.41;;;16.16;100.00
50384;BME280;36301;48.310;12.786;2022-09-09T11:45:42;96215.28;;;16.30;100.00
50384;BME280;36301;48.310;12.786;2022-09-09T11:48:29;96212.06;;;16.46;100.00
50384;BME280;36301;48.310;12.786;2022-09-09T11:50:58;96204.38;;;16.51;100.00
50384;BME280;36301;48.310;12.786;2022-09-09T11:53:26;96202.41;;;16.59;100.00
50384;BME280;36301;48.310;12.786;2022-09-09T11:56:28;96198.84;;;16.69;100.00
50384;BME280;36301;48.310;12.786;2022-09-09T11:59:05;96193.09;;;16.74;100.00
50384;BME280;36301;48.310;12.786;2022-09-09T12:01:41;96178.25;;;16.66;100.00
50384;BME280;36301;48.310;12.786;2022-09-09T12:06:45;96199.34;;;16.57;100.00
50384;BME280;36301;48.310;12.786;2022-09-09T12:09:20;96203.31;;;16.42;100.00
50384;BME280;36301;48.310;12.786;2022-09-09T12:11:49;96198.63;;;16.15;100.00
50384;BME280;36301;48.310;12.786;2022-09-09T12:14:19;96197.84;;;16.18;100.00
50384;BME280;36301;48.310;12.786;2022-09-09T12:16:46;96188.91;;;16.32;100.00
50384;BME280;36301;48.310;12.786;2022-09-09T12:19:20;96186.00;;;16.19;100.00
50384;BME280;36301;48.310;12.786;2022-09-09T12:22:00;96200.56;;;16.11;100.00
50384;BME280;36301;48.310;12.786;2022-09-09T12:24:37;96199.88;;;16.03;100.00
50384;BME280;36301;48.310;12.786;2022-09-09T12:32:11;96197.06;;;15.73;100.00
50384;BME280;36301;48.310;12.786;2022-09-09T12:34:49;96194.72;;;15.82;100.00
50384;BME280;36301;48.310;12.786;2022-09-09T12:37:26;96186.75;;;15.75;100.00
50384;BME280;36301;48.310;12.786;2022-09-09T12:39:56;96181.81;;;15.73;100.00
50384;BME280;36301;48.310;12.786;2022-09-09T12:42:23;96188.34;;;15.65;100.00
50384;BME280;36301;48.310;12.786;2022-09-09T12:44:50;96194.47;;;15.58;100.00
50384;BME280;36301;48.310;12.786;2022-09-09T12:47:17;96196.00;;;15.60;100.00
50384;BME280;36301;48.310;12.786;2022-09-09T12:49:45;96194.13;;;15.53;100.00
50384;BME280;36301;48.310;12.786;2022-09-09T12:54:45;96192.91;;;15.68;100.00
50384;BME280;36301;48.310;12.786;2022-09-09T12:57:17;96195.69;;;15.47;100.00
50384;BME280;36301;48.310;12.786;2022-09-09T12:59:44;96204.50;;;15.40;100.00
50384;BME280;36301;48.310;12.786;2022-09-09T13:04:46;96206.41;;;15.40;100.00
50384;BME280;36301;48.310;12.786;2022-09-09T13:07:13;96198.03;;;15.38;100.00
50384;BME280;36301;48.310;12.786;2022-09-09T13:09:42;96201.53;;;15.31;100.00
50384;BME280;36301;48.310;12.786;2022-09-09T13:12:13;96199.13;;;15.47;100.00
50384;BME280;36301;48.310;12.786;2022-09-09T13:14:42;96192.22;;;15.53;100.00
50384;BME280;36301;48.310;12.786;2022-09-09T13:17:48;96185.31;;;15.56;100.00
50384;BME280;36301;48.310;12.786;2022-09-09T13:20:02;96183.88;;;15.48;100.00
50384;BME280;36301;48.310;12.786;2022-09-09T13:22:37;96177.78;;;15.47;100.00
50384;BME280;36301;48.310;12.786;2022-09-09T13:27:34;96182.66;;;15.63;100.00
50384;BME280;36301;48.310;12.786;2022-09-09T13:35:31;96172.63;;;16.23;100.00
50384;BME280;36301;48.310;12.786;2022-09-09T13:37:58;96171.81;;;16.26;100.00
50384;BME280;36301;48.310;12.786;2022-09-09T13:40:26;96172.50;;;16.33;100.00
50384;BME280;36301;48.310;12.786;2022-09-09T13:42:55;96173.69;;;16.29;100.00
50384;BME280;36301;48.310;12.786;2022-09-09T13:45:23;96164.16;;;16.28;100.00
50384;BME280;36301;48.310;12.786;2022-09-09T13:47:50;96167.22;;;16.26;100.00
50384;BME280;36301;48.310;12.786;2022-09-09T13:50:19;96167.53;;;16.32;100.00
50384;BME280;36301;48.310;12.786;2022-09-09T13:52:50;96160.78;;;16.24;100.00
50384;BME280;36301;48.310;12.786;2022-09-09T13:55:22;96165.91;;;16.42;100.00
50384;BME280;36301;48.310;12.786;2022-09-09T13:57:59;96159.50;;;16.35;100.00
50384;BME280;36301;48.310;12.786;2022-09-09T14:00:28;96159.47;;;16.39;100.00
50384;BME280;36301;48.310;12.786;2022-09-09T14:02:55;96152.06;;;16.16;100.00
50384;BME280;36301;48.310;12.786;2022-09-09T14:05:21;96155.53;;;16.13;100.00
50384;BME280;36301;48.310;12.786;2022-09-09T14:07:48;96144.44;;;16.15;100.00
50384;BME280;36301;48.310;12.786;2022-09-09T14:10:18;96138.59;;;16.27;100.00
50384;BME280;36301;48.310;12.786;2022-09-09T14:12:45;96129.00;;;16.33;100.00
50384;BME280;36301;48.310;12.786;2022-09-09T14:15:12;96133.34;;;16.20;100.00
50384;BME280;36301;48.310;12.786;2022-09-09T14:17:39;96131.50;;;16.13;100.00
50384;BME280;36301;48.310;12.786;2022-09-09T14:20:05;96130.41;;;16.07;100.00
50384;BME280;36301;48.310;12.786;2022-09-09T14:22:35;96132.91;;;16.21;100.00
50384;BME280;36301;48.310;12.786;2022-09-09T14:25:02;96136.53;;;16.04;100.00
50384;BME280;36301;48.310;12.786;2022-09-09T14:27:29;96139.44;;;16.17;100.00
50384;BME280;36301;48.310;12.786;2022-09-09T14:29:56;96131.13;;;16.11;100.00
50384;BME280;36301;48.310;12.786;2022-09-09T14:32:23;96132.03;;;16.35;100.00
50384;BME280;36301;48.310;12.786;2022-09-09T14:34:50;96123.41;;;16.54;100.00
50384;BME280;36301;48.310;12.786;2022-09-09T14:37:17;96131.75;;;16.60;100.00
50384;BME280;36301;48.310;12.786;2022-09-09T14:39:44;96132.66;;;16.80;100.00
50384;BME280;36301;48.310;12.786;2022-09-09T14:42:10;96131.44;;;16.89;100.00
50384;BME280;36301;48.310;12.786;2022-09-09T14:44:37;96133.25;;;17.22;100.00
50384;BME280;36301;48.310;12.786;2022-09-09T14:47:07;96136.41;;;16.86;100.00
50384;BME280;36301;48.310;12.786;2022-09-09T14:49:36;96130.72;;;16.84;100.00
50384;BME280;36301;48.310;12.786;2022-09-09T14:52:05;96126.72;;;16.66;100.00
50384;BME280;36301;48.310;12.786;2022-09-09T14:54:32;96127.66;;;16.82;100.00
50384;BME280;36301;48.310;12.786;2022-09-09T14:56:59;96132.75;;;16.73;100.00